sensor_id;sensor_type;location;lat;lon;timestamp;P1;durP1;ratioP1;P2;durP2;ratioP2
26686;SDS011;14298;50.900;4.648;2023-10-13T00:00:20;6.50;;;4.53;;
26686;SDS011;14298;50.900;4.648;2023-10-13T00:02:56;7.17;;;6.03;;
26686;SDS011;14298;50.900;4.648;2023-10-13T00:05:31;8.30;;;5.60;;
26686;SDS011;14298;50.900;4.648;2023-10-13T00:07:58;9.50;;;5.70;;
26686;SDS011;14298;50.900;4.648;2023-10-13T00:10:28;7.43;;;5.97;;
26686;SDS011;14298;50.900;4.648;2023-10-13T00:12:57;7.03;;;5.23;;
26686;SDS011;14298;50.900;4.648;2023-10-13T00:18:30;11.37;;;6.53;;
26686;SDS011;14298;50.900;4.648;2023-10-13T00:21:02;8.10;;;5.67;;
26686;SDS011;14298;50.900;4.648;2023-10-13T00:23:43;7.53;;;6.53;;
26686;SDS011;14298;50.900;4.648;2023-10-13T00:26:13;8.47;;;5.17;;
26686;SDS011;14298;50.900;4.648;2023-10-13T00:28:43;9.80;;;6.07;;
26686;SDS011;14298;50.900;4.648;2023-10-13T00:31:14;5.83;;;5.23;;
26686;SDS011;14298;50.900;4.648;2023-10-13T00:33:44;5.57;;;5.03;;
26686;SDS011;14298;50.900;4.648;2023-10-13T00:36:12;6.03;;;5.17;;
26686;SDS011;14298;50.900;4.648;2023-10-13T00:38:41;7.93;;;6.40;;
26686;SDS011;14298;50.900;4.648;2023-10-13T00:41:09;7.23;;;6.07;;
26686;SDS011;14298;50.900;4.648;2023-10-13T00:43:46;10.57;;;5.97;;
26686;SDS011;14298;50.900;4.648;2023-10-13T00:46:33;14.27;;;6.83;;
26686;SDS011;14298;50.900;4.648;2023-10-13T00:49:03;9.07;;;6.67;;
26686;SDS011;14298;50.900;4.648;2023-10-13T00:51:32;7.57;;;5.27;;
26686;SDS011;14298;50.900;4.648;2023-10-13T00:54:02;6.17;;;5.37;;
26686;SDS011;14298;50.900;4.648;2023-10-13T00:56:32;10.47;;;6.73;;
26686;SDS011;14298;50.900;4.648;2023-10-13T00:59:01;7.70;;;5.93;;
26686;SDS011;14298;50.900;4.648;2023-10-13T01:01:30;7.53;;;5.13;;
26686;SDS011;14298;50.900;4.648;2023-10-13T01:04:00;7.33;;;6.00;;
26686;SDS011;14298;50.900;4.648;2023-10-13T01:06:33;6.73;;;5.10;;
26686;SDS011;14298;50.900;4.648;2023-10-13T01:09:05;7.30;;;5.47;;
26686;SDS011;14298;50.900;4.648;2023-10-13T01:11:50;15.07;;;6.17;;
26686;SDS011;14298;50.900;4.648;2023-10-13T01:14:25;8.63;;;6.27;;
26686;SDS011;14298;50.900;4.648;2023-10-13T01:16:55;7.20;;;6.23;;
26686;SDS011;14298;50.900;4.648;2023-10-13T01:19:25;5.67;;;5.00;;
26686;SDS011;14298;50.900;4.648;2023-10-13T01:21:55;9.53;;;5.27;;
26686;SDS011;14298;50.900;4.648;2023-10-13T01:24:29;6.20;;;4.93;;
26686;SDS011;14298;50.900;4.648;2023-10-13T01:27:04;9.43;;;4.87;;
26686;SDS011;14298;50.900;4.648;2023-10-13T01:29:34;9.60;;;4.87;;
26686;SDS011;14298;50.900;4.648;2023-10-13T01:32:02;9.83;;;6.10;;
26686;SDS011;14298;50.900;4.648;2023-10-13T01:34:30;9.07;;;5.10;;
26686;SDS011;14298;50.900;4.648;2023-10-13T01:37:00;7.47;;;4.63;;
26686;SDS011;14298;50.900;4.648;2023-10-13T01:39:30;7.43;;;4.83;;
26686;SDS011;14298;50.900;4.648;2023-10-13T01:41:58;5.40;;;3.80;;
26686;SDS011;14298;50.900;4.648;2023-10-13T01:44:26;5.10;;;4.57;;
26686;SDS011;14298;50.900;4.648;2023-10-13T01:47:00;8.23;;;4.40;;
26686;SDS011;14298;50.900;4.648;2023-10-13T01:49:34;5.13;;;4.13;;
26686;SDS011;14298;50.900;4.648;2023-10-13T01:52:16;6.73;;;4.30;;
26686;SDS011;14298;50.900;4.648;2023-10-13T01:54:45;6.77;;;4.83;;
26686;SDS011;14298;50.900;4.648;2023-10-13T01:57:13;4.53;;;3.67;;
26686;SDS011;14298;50.900;4.648;2023-10-13T01:59:48;5.20;;;3.77;;
26686;SDS011;14298;50.900;4.648;2023-10-13T02:02:12;4.53;;;4.03;;
26686;SDS011;14298;50.900;4.648;2023-10-13T02:04:41;3.93;;;3.33;;
26686;SDS011;14298;50.900;4.648;2023-10-13T02:07:26;4.77;;;3.97;;
26686;SDS011;14298;50.900;4.648;2023-10-13T02:09:56;5.47;;;4.23;;
26686;SDS011;14298;50.900;4.648;2023-10-13T02:12:24;9.53;;;4.20;;
26686;SDS011;14298;50.900;4.648;2023-10-13T02:15:05;9.43;;;4.10;;
26686;SDS011;14298;50.900;4.648;2023-10-13T02:17:33;5.73;;;3.97;;
26686;SDS011;14298;50.900;4.648;2023-10-13T02:20:03;5.17;;;4.33;;
26686;SDS011;14298;50.900;4.648;2023-10-13T02:22:34;8.27;;;3.37;;
26686;SDS011;14298;50.900;4.648;2023-10-13T02:25:04;7.87;;;4.50;;
26686;SDS011;14298;50.900;4.648;2023-10-13T02:27:33;5.47;;;4.83;;
26686;SDS011;14298;50.900;4.648;2023-10-13T02:30:03;4.33;;;3.67;;
26686;SDS011;14298;50.900;4.648;2023-10-13T02:32:32;10.27;;;4.97;;
26686;SDS011;14298;50.900;4.648;2023-10-13T02:35:02;5.57;;;4.17;;
26686;SDS011;14298;50.900;4.648;2023-10-13T02:37:31;4.77;;;3.50;;
26686;SDS011;14298;50.900;4.648;2023-10-13T02:39:59;6.57;;;4.67;;
26686;SDS011;14298;50.900;4.648;2023-10-13T02:42:27;16.03;;;4.83;;
26686;SDS011;14298;50.900;4.648;2023-10-13T02:44:55;5.13;;;4.37;;
26686;SDS011;14298;50.900;4.648;2023-10-13T02:47:24;4.83;;;3.63;;
26686;SDS011;14298;50.900;4.648;2023-10-13T02:49:53;7.53;;;4.60;;
26686;SDS011;14298;50.900;4.648;2023-10-13T02:52:21;4.93;;;4.40;;
26686;SDS011;14298;50.900;4.648;2023-10-13T02:54:51;4.77;;;4.37;;
26686;SDS011;14298;50.900;4.648;2023-10-13T02:57:19;4.93;;;4.20;;
26686;SDS011;14298;50.900;4.648;2023-10-13T02:59:49;10.10;;;9.10;;
26686;SDS011;14298;50.900;4.648;2023-10-13T03:02:24;10.43;;;9.67;;
26686;SDS011;14298;50.900;4.648;2023-10-13T03:04:57;10.47;;;9.63;;
26686;SDS011;14298;50.900;4.648;2023-10-13T03:07:27;30.63;;;28.73;;
26686;SDS011;14298;50.900;4.648;2023-10-13T03:09:58;51.23;;;47.33;;
26686;SDS011;14298;50.900;4.648;2023-10-13T03:12:31;49.63;;;45.77;;
26686;SDS011;14298;50.900;4.648;2023-10-13T03:15:00;49.03;;;45.33;;
26686;SDS011;14298;50.900;4.648;2023-10-13T03:17:42;48.23;;;44.43;;
26686;SDS011;14298;50.900;4.648;2023-10-13T03:20:10;47.03;;;43.43;;
26686;SDS011;14298;50.900;4.648;2023-10-13T03:22:43;43.17;;;39.97;;
26686;SDS011;14298;50.900;4.648;2023-10-13T03:25:14;39.73;;;36.93;;
26686;SDS011;14298;50.900;4.648;2023-10-13T03:27:46;30.97;;;28.97;;
26686;SDS011;14298;50.900;4.648;2023-10-13T03:30:22;27.10;;;25.20;;
26686;SDS011;14298;50.900;4.648;2023-10-13T03:32:51;27.60;;;25.90;;
26686;SDS011;14298;50.900;4.648;2023-10-13T03:38:13;22.07;;;20.77;;
26686;SDS011;14298;50.900;4.648;2023-10-13T03:40:49;20.93;;;19.67;;
26686;SDS011;14298;50.900;4.648;2023-10-13T03:43:18;21.73;;;18.50;;
26686;SDS011;14298;50.900;4.648;2023-10-13T03:45:50;15.53;;;14.23;;
26686;SDS011;14298;50.900;4.648;2023-10-13T03:48:22;14.30;;;13.30;;
26686;SDS011;14298;50.900;4.648;2023-10-13T03:51:02;13.10;;;12.30;;
26686;SDS011;14298;50.900;4.648;2023-10-13T03:53:37;12.00;;;11.10;;
26686;SDS011;14298;50.900;4.648;2023-10-13T03:56:27;7.47;;;6.87;;
26686;SDS011;14298;50.900;4.648;2023-10-13T03:58:56;8.03;;;7.33;;
26686;SDS011;14298;50.900;4.648;2023-10-13T04:01:44;11.93;;;5.43;;
26686;SDS011;14298;50.900;4.648;2023-10-13T04:04:16;13.27;;;6.30;;
26686;SDS011;14298;50.900;4.648;2023-10-13T04:06:49;7.67;;;6.80;;
26686;SDS011;14298;50.900;4.648;2023-10-13T04:09:22;7.37;;;6.87;;
26686;SDS011;14298;50.900;4.648;2023-10-13T04:12:03;7.27;;;6.77;;
26686;SDS011;14298;50.900;4.648;2023-10-13T04:14:35;8.77;;;5.13;;
26686;SDS011;14298;50.900;4.648;2023-10-13T04:17:23;6.23;;;4.03;;
26686;SDS011;14298;50.900;4.648;2023-10-13T04:19:56;5.07;;;3.67;;
26686;SDS011;14298;50.900;4.648;2023-10-13T04:22:36;3.83;;;3.50;;
26686;SDS011;14298;50.900;4.648;2023-10-13T04:25:19;13.37;;;3.83;;
26686;SDS011;14298;50.900;4.648;2023-10-13T04:28:04;4.70;;;4.37;;
26686;SDS011;14298;50.900;4.648;2023-10-13T04:30:43;14.27;;;3.80;;
26686;SDS011;14298;50.900;4.648;2023-10-13T04:36:05;3.57;;;3.23;;
26686;SDS011;14298;50.900;4.648;2023-10-13T04:38:52;3.73;;;3.47;;
26686;SDS011;14298;50.900;4.648;2023-10-13T04:41:40;4.90;;;4.40;;
26686;SDS011;14298;50.900;4.648;2023-10-13T04:44:15;10.63;;;3.50;;
26686;SDS011;14298;50.900;4.648;2023-10-13T04:46:53;5.97;;;3.90;;
26686;SDS011;14298;50.900;4.648;2023-10-13T04:52:18;4.03;;;3.73;;
26686;SDS011;14298;50.900;4.648;2023-10-13T04:55:04;3.03;;;2.83;;
26686;SDS011;14298;50.900;4.648;2023-10-13T04:57:46;4.97;;;4.13;;
26686;SDS011;14298;50.900;4.648;2023-10-13T05:03:08;3.57;;;3.33;;
26686;SDS011;14298;50.900;4.648;2023-10-13T05:05:47;4.43;;;4.03;;
26686;SDS011;14298;50.900;4.648;2023-10-13T05:08:33;3.40;;;3.20;;
26686;SDS011;14298;50.900;4.648;2023-10-13T05:11:19;5.47;;;3.40;;
26686;SDS011;14298;50.900;4.648;2023-10-13T05:14:05;4.53;;;4.23;;
26686;SDS011;14298;50.900;4.648;2023-10-13T05:16:51;2.90;;;2.70;;
26686;SDS011;14298;50.900;4.648;2023-10-13T05:19:37;3.93;;;3.57;;
26686;SDS011;14298;50.900;4.648;2023-10-13T05:22:18;4.57;;;3.47;;
26686;SDS011;14298;50.900;4.648;2023-10-13T05:25:05;6.73;;;3.17;;
26686;SDS011;14298;50.900;4.648;2023-10-13T05:27:51;6.77;;;3.93;;
26686;SDS011;14298;50.900;4.648;2023-10-13T05:30:37;5.13;;;3.57;;
26686;SDS011;14298;50.900;4.648;2023-10-13T05:33:22;4.63;;;3.50;;
26686;SDS011;14298;50.900;4.648;2023-10-13T05:36:10;3.17;;;2.93;;
26686;SDS011;14298;50.900;4.648;2023-10-13T05:38:56;7.17;;;2.97;;
26686;SDS011;14298;50.900;4.648;2023-10-13T05:41:42;4.13;;;3.47;;
26686;SDS011;14298;50.900;4.648;2023-10-13T05:44:28;4.03;;;3.33;;
26686;SDS011;14298;50.900;4.648;2023-10-13T05:47:03;14.43;;;3.70;;
26686;SDS011;14298;50.900;4.648;2023-10-13T05:49:52;5.47;;;3.37;;
26686;SDS011;14298;50.900;4.648;2023-10-13T05:52:21;9.13;;;3.50;;
26686;SDS011;14298;50.900;4.648;2023-10-13T05:55:07;3.97;;;3.67;;
26686;SDS011;14298;50.900;4.648;2023-10-13T05:57:53;5.90;;;3.47;;
26686;SDS011;14298;50.900;4.648;2023-10-13T06:00:39;7.30;;;3.30;;
26686;SDS011;14298;50.900;4.648;2023-10-13T06:03:26;9.47;;;4.13;;
26686;SDS011;14298;50.900;4.648;2023-10-13T06:06:12;8.07;;;4.07;;
26686;SDS011;14298;50.900;4.648;2023-10-13T06:08:58;4.37;;;3.97;;
26686;SDS011;14298;50.900;4.648;2023-10-13T06:11:44;3.07;;;2.80;;
26686;SDS011;14298;50.900;4.648;2023-10-13T06:14:30;13.80;;;2.87;;
26686;SDS011;14298;50.900;4.648;2023-10-13T06:17:16;7.60;;;3.60;;
26686;SDS011;14298;50.900;4.648;2023-10-13T06:20:02;2.90;;;2.70;;
26686;SDS011;14298;50.900;4.648;2023-10-13T06:22:48;3.23;;;3.03;;
26686;SDS011;14298;50.900;4.648;2023-10-13T06:25:34;8.83;;;4.27;;
26686;SDS011;14298;50.900;4.648;2023-10-13T06:28:20;4.03;;;3.30;;
26686;SDS011;14298;50.900;4.648;2023-10-13T06:31:06;4.67;;;3.90;;
26686;SDS011;14298;50.900;4.648;2023-10-13T06:33:34;3.57;;;3.33;;
26686;SDS011;14298;50.900;4.648;2023-10-13T06:36:02;4.43;;;4.13;;
26686;SDS011;14298;50.900;4.648;2023-10-13T06:38:32;5.90;;;3.60;;
26686;SDS011;14298;50.900;4.648;2023-10-13T06:41:03;6.37;;;4.07;;
26686;SDS011;14298;50.900;4.648;2023-10-13T06:43:35;4.73;;;3.73;;
26686;SDS011;14298;50.900;4.648;2023-10-13T06:46:10;3.30;;;3.07;;
26686;SDS011;14298;50.900;4.648;2023-10-13T06:48:40;8.67;;;3.63;;
26686;SDS011;14298;50.900;4.648;2023-10-13T06:51:08;8.90;;;2.73;;
26686;SDS011;14298;50.900;4.648;2023-10-13T06:53:45;6.07;;;3.40;;
26686;SDS011;14298;50.900;4.648;2023-10-13T06:56:15;11.10;;;3.87;;
26686;SDS011;14298;50.900;4.648;2023-10-13T06:58:44;6.67;;;2.70;;
26686;SDS011;14298;50.900;4.648;2023-10-13T07:01:13;4.77;;;3.70;;
26686;SDS011;14298;50.900;4.648;2023-10-13T07:03:46;2.73;;;2.53;;
26686;SDS011;14298;50.900;4.648;2023-10-13T07:06:15;2.90;;;2.67;;
26686;SDS011;14298;50.900;4.648;2023-10-13T07:08:48;6.43;;;2.60;;
26686;SDS011;14298;50.900;4.648;2023-10-13T07:11:27;4.83;;;3.33;;
26686;SDS011;14298;50.900;4.648;2023-10-13T07:13:52;5.97;;;3.47;;
26686;SDS011;14298;50.900;4.648;2023-10-13T07:16:21;13.63;;;3.00;;
26686;SDS011;14298;50.900;4.648;2023-10-13T07:18:50;4.80;;;3.40;;
26686;SDS011;14298;50.900;4.648;2023-10-13T07:21:20;5.90;;;2.77;;
26686;SDS011;14298;50.900;4.648;2023-10-13T07:23:59;4.90;;;2.53;;
26686;SDS011;14298;50.900;4.648;2023-10-13T07:26:29;4.17;;;3.13;;
26686;SDS011;14298;50.900;4.648;2023-10-13T07:28:57;4.40;;;2.33;;
26686;SDS011;14298;50.900;4.648;2023-10-13T07:31:27;4.47;;;2.43;;
26686;SDS011;14298;50.900;4.648;2023-10-13T07:33:55;13.00;;;3.47;;
26686;SDS011;14298;50.900;4.648;2023-10-13T07:36:24;7.03;;;3.17;;
26686;SDS011;14298;50.900;4.648;2023-10-13T07:38:57;10.30;;;2.73;;
26686;SDS011;14298;50.900;4.648;2023-10-13T07:41:42;2.80;;;2.17;;
26686;SDS011;14298;50.900;4.648;2023-10-13T07:44:10;2.17;;;1.63;;
26686;SDS011;14298;50.900;4.648;2023-10-13T07:46:40;2.80;;;2.33;;
26686;SDS011;14298;50.900;4.648;2023-10-13T07:49:09;5.37;;;2.10;;
26686;SDS011;14298;50.900;4.648;2023-10-13T07:51:38;15.30;;;1.97;;
26686;SDS011;14298;50.900;4.648;2023-10-13T07:54:15;3.70;;;2.83;;
26686;SDS011;14298;50.900;4.648;2023-10-13T07:56:48;12.67;;;2.23;;
26686;SDS011;14298;50.900;4.648;2023-10-13T07:59:16;2.50;;;1.93;;
26686;SDS011;14298;50.900;4.648;2023-10-13T08:01:45;7.83;;;2.23;;
26686;SDS011;14298;50.900;4.648;2023-10-13T08:04:15;3.13;;;2.60;;
26686;SDS011;14298;50.900;4.648;2023-10-13T08:06:44;10.73;;;2.57;;
26686;SDS011;14298;50.900;4.648;2023-10-13T08:09:12;3.17;;;1.70;;
26686;SDS011;14298;50.900;4.648;2023-10-13T08:12:03;4.90;;;2.83;;
26686;SDS011;14298;50.900;4.648;2023-10-13T08:14:31;3.63;;;2.07;;
26686;SDS011;14298;50.900;4.648;2023-10-13T08:17:00;2.87;;;2.00;;
26686;SDS011;14298;50.900;4.648;2023-10-13T08:19:30;2.53;;;1.90;;
26686;SDS011;14298;50.900;4.648;2023-10-13T08:22:09;3.53;;;1.93;;
26686;SDS011;14298;50.900;4.648;2023-10-13T08:24:48;2.13;;;1.70;;
26686;SDS011;14298;50.900;4.648;2023-10-13T08:27:21;4.20;;;2.50;;
26686;SDS011;14298;50.900;4.648;2023-10-13T08:30:02;4.80;;;2.20;;
26686;SDS011;14298;50.900;4.648;2023-10-13T08:32:49;2.60;;;2.10;;
26686;SDS011;14298;50.900;4.648;2023-10-13T08:35:24;4.23;;;2.13;;
26686;SDS011;14298;50.900;4.648;2023-10-13T08:37:54;2.53;;;2.33;;
26686;SDS011;14298;50.900;4.648;2023-10-13T08:40:23;3.13;;;2.07;;
26686;SDS011;14298;50.900;4.648;2023-10-13T08:43:12;3.13;;;2.03;;
26686;SDS011;14298;50.900;4.648;2023-10-13T08:45:41;5.73;;;1.87;;
26686;SDS011;14298;50.900;4.648;2023-10-13T08:48:11;3.43;;;2.20;;
26686;SDS011;14298;50.900;4.648;2023-10-13T08:50:45;1.73;;;1.47;;
26686;SDS011;14298;50.900;4.648;2023-10-13T08:53:24;2.10;;;1.67;;
26686;SDS011;14298;50.900;4.648;2023-10-13T08:56:02;4.33;;;2.60;;
26686;SDS011;14298;50.900;4.648;2023-10-13T08:58:33;3.23;;;2.40;;
26686;SDS011;14298;50.900;4.648;2023-10-13T09:01:12;3.10;;;2.00;;
26686;SDS011;14298;50.900;4.648;2023-10-13T09:03:41;5.27;;;2.13;;
26686;SDS011;14298;50.900;4.648;2023-10-13T09:06:12;2.40;;;2.20;;
26686;SDS011;14298;50.900;4.648;2023-10-13T09:08:41;4.27;;;1.93;;
26686;SDS011;14298;50.900;4.648;2023-10-13T09:11:13;3.30;;;2.27;;
26686;SDS011;14298;50.900;4.648;2023-10-13T09:13:43;3.50;;;2.23;;
26686;SDS011;14298;50.900;4.648;2023-10-13T09:16:14;3.57;;;2.27;;
26686;SDS011;14298;50.900;4.648;2023-10-13T09:19:03;5.03;;;1.80;;
26686;SDS011;14298;50.900;4.648;2023-10-13T09:21:38;4.20;;;2.47;;
26686;SDS011;14298;50.900;4.648;2023-10-13T09:24:14;2.23;;;1.83;;
26686;SDS011;14298;50.900;4.648;2023-10-13T09:26:52;4.73;;;2.00;;
26686;SDS011;14298;50.900;4.648;2023-10-13T09:29:22;4.43;;;2.83;;
26686;SDS011;14298;50.900;4.648;2023-10-13T09:31:58;20.60;;;3.03;;
26686;SDS011;14298;50.900;4.648;2023-10-13T09:34:27;2.03;;;1.33;;
26686;SDS011;14298;50.900;4.648;2023-10-13T09:37:02;4.13;;;2.23;;
26686;SDS011;14298;50.900;4.648;2023-10-13T09:39:26;2.83;;;2.53;;
26686;SDS011;14298;50.900;4.648;2023-10-13T09:41:59;1.60;;;1.50;;
26686;SDS011;14298;50.900;4.648;2023-10-13T09:44:27;7.00;;;2.23;;
26686;SDS011;14298;50.900;4.648;2023-10-13T09:47:00;3.50;;;2.30;;
26686;SDS011;14298;50.900;4.648;2023-10-13T09:49:30;5.80;;;2.40;;
26686;SDS011;14298;50.900;4.648;2023-10-13T09:52:13;4.37;;;2.80;;
26686;SDS011;14298;50.900;4.648;2023-10-13T09:54:43;2.83;;;1.53;;
26686;SDS011;14298;50.900;4.648;2023-10-13T09:57:17;2.23;;;2.03;;
26686;SDS011;14298;50.900;4.648;2023-10-13T09:59:49;2.30;;;1.80;;
26686;SDS011;14298;50.900;4.648;2023-10-13T10:02:21;3.47;;;2.40;;
26686;SDS011;14298;50.900;4.648;2023-10-13T10:04:55;6.50;;;2.07;;
26686;SDS011;14298;50.900;4.648;2023-10-13T10:07:25;4.67;;;1.80;;
26686;SDS011;14298;50.900;4.648;2023-10-13T10:09:57;2.93;;;1.77;;
26686;SDS011;14298;50.900;4.648;2023-10-13T10:15:33;3.87;;;1.70;;
26686;SDS011;14298;50.900;4.648;2023-10-13T10:18:02;2.43;;;2.23;;
26686;SDS011;14298;50.900;4.648;2023-10-13T10:20:31;3.40;;;1.53;;
26686;SDS011;14298;50.900;4.648;2023-10-13T10:23:10;5.37;;;1.70;;
26686;SDS011;14298;50.900;4.648;2023-10-13T10:25:41;10.57;;;3.30;;
26686;SDS011;14298;50.900;4.648;2023-10-13T10:28:11;6.57;;;2.27;;
26686;SDS011;14298;50.900;4.648;2023-10-13T10:30:41;9.63;;;2.67;;
26686;SDS011;14298;50.900;4.648;2023-10-13T10:33:11;3.87;;;2.70;;
26686;SDS011;14298;50.900;4.648;2023-10-13T10:35:40;7.43;;;2.07;;
26686;SDS011;14298;50.900;4.648;2023-10-13T10:38:17;4.00;;;2.50;;
26686;SDS011;14298;50.900;4.648;2023-10-13T10:40:55;2.77;;;1.95;;
26686;SDS011;14298;50.900;4.648;2023-10-13T10:43:28;1.50;;;1.40;;
26686;SDS011;14298;50.900;4.648;2023-10-13T10:45:58;2.62;;;2.25;;
26686;SDS011;14298;50.900;4.648;2023-10-13T10:48:31;2.08;;;1.60;;
26686;SDS011;14298;50.900;4.648;2023-10-13T10:53:54;7.63;;;3.00;;
26686;SDS011;14298;50.900;4.648;2023-10-13T10:56:24;4.25;;;2.60;;
26686;SDS011;14298;50.900;4.648;2023-10-13T10:59:04;2.73;;;1.97;;
26686;SDS011;14298;50.900;4.648;2023-10-13T11:01:32;15.63;;;2.30;;
26686;SDS011;14298;50.900;4.648;2023-10-13T11:04:08;6.55;;;2.62;;
26686;SDS011;14298;50.900;4.648;2023-10-13T11:09:29;3.72;;;1.65;;
26686;SDS011;14298;50.900;4.648;2023-10-13T11:14:43;5.77;;;1.80;;
26686;SDS011;14298;50.900;4.648;2023-10-13T11:17:18;3.83;;;1.87;;
26686;SDS011;14298;50.900;4.648;2023-10-13T11:19:47;3.35;;;2.45;;
26686;SDS011;14298;50.900;4.648;2023-10-13T11:22:16;5.95;;;2.25;;
26686;SDS011;14298;50.900;4.648;2023-10-13T11:24:59;5.20;;;2.52;;
26686;SDS011;14298;50.900;4.648;2023-10-13T11:27:30;3.47;;;2.35;;
26686;SDS011;14298;50.900;4.648;2023-10-13T11:30:17;7.25;;;2.42;;
26686;SDS011;14298;50.900;4.648;2023-10-13T11:33:02;3.45;;;2.17;;
26686;SDS011;14298;50.900;4.648;2023-10-13T11:35:32;4.37;;;2.15;;
26686;SDS011;14298;50.900;4.648;2023-10-13T11:38:19;3.33;;;1.75;;
26686;SDS011;14298;50.900;4.648;2023-10-13T11:40:54;4.55;;;2.45;;
26686;SDS011;14298;50.900;4.648;2023-10-13T11:43:37;3.37;;;2.05;;
26686;SDS011;14298;50.900;4.648;2023-10-13T11:46:13;6.33;;;2.22;;
26686;SDS011;14298;50.900;4.648;2023-10-13T11:49:00;7.53;;;2.87;;
26686;SDS011;14298;50.900;4.648;2023-10-13T11:51:29;2.72;;;1.75;;
26686;SDS011;14298;50.900;4.648;2023-10-13T11:53:59;5.08;;;2.83;;
26686;SDS011;14298;50.900;4.648;2023-10-13T11:56:27;10.00;;;2.30;;
26686;SDS011;14298;50.900;4.648;2023-10-13T11:58:55;9.80;;;3.15;;
26686;SDS011;14298;50.900;4.648;2023-10-13T12:01:25;7.20;;;1.87;;
26686;SDS011;14298;50.900;4.648;2023-10-13T12:03:54;2.77;;;1.95;;
26686;SDS011;14298;50.900;4.648;2023-10-13T12:06:36;4.77;;;2.60;;
26686;SDS011;14298;50.900;4.648;2023-10-13T12:09:09;2.58;;;2.00;;
26686;SDS011;14298;50.900;4.648;2023-10-13T12:11:42;6.50;;;2.45;;
26686;SDS011;14298;50.900;4.648;2023-10-13T12:14:12;6.70;;;2.33;;
26686;SDS011;14298;50.900;4.648;2023-10-13T12:16:50;1.25;;;1.10;;
26686;SDS011;14298;50.900;4.648;2023-10-13T12:19:20;4.05;;;2.37;;
26686;SDS011;14298;50.900;4.648;2023-10-13T12:21:52;4.65;;;2.72;;
26686;SDS011;14298;50.900;4.648;2023-10-13T12:24:23;5.10;;;1.83;;
26686;SDS011;14298;50.900;4.648;2023-10-13T12:27:06;5.10;;;2.50;;
26686;SDS011;14298;50.900;4.648;2023-10-13T12:29:35;2.77;;;1.37;;
26686;SDS011;14298;50.900;4.648;2023-10-13T12:32:03;1.77;;;1.20;;
26686;SDS011;14298;50.900;4.648;2023-10-13T12:34:41;2.80;;;2.27;;
26686;SDS011;14298;50.900;4.648;2023-10-13T12:37:26;2.67;;;1.82;;
26686;SDS011;14298;50.900;4.648;2023-10-13T12:40:06;1.45;;;1.30;;
26686;SDS011;14298;50.900;4.648;2023-10-13T12:42:52;2.65;;;1.72;;
26686;SDS011;14298;50.900;4.648;2023-10-13T12:45:41;4.47;;;1.95;;
26686;SDS011;14298;50.900;4.648;2023-10-13T12:48:28;6.70;;;2.47;;
26686;SDS011;14298;50.900;4.648;2023-10-13T12:51:14;4.70;;;2.80;;
26686;SDS011;14298;50.900;4.648;2023-10-13T12:53:50;6.17;;;2.05;;
26686;SDS011;14298;50.900;4.648;2023-10-13T12:56:20;2.75;;;1.57;;
26686;SDS011;14298;50.900;4.648;2023-10-13T12:58:55;3.52;;;2.22;;
26686;SDS011;14298;50.900;4.648;2023-10-13T13:01:25;1.77;;;1.55;;
26686;SDS011;14298;50.900;4.648;2023-10-13T13:03:54;2.60;;;1.92;;
26686;SDS011;14298;50.900;4.648;2023-10-13T13:06:23;2.03;;;1.53;;
26686;SDS011;14298;50.900;4.648;2023-10-13T13:08:52;1.65;;;1.40;;
26686;SDS011;14298;50.900;4.648;2023-10-13T13:11:20;1.92;;;1.30;;
26686;SDS011;14298;50.900;4.648;2023-10-13T13:13:48;6.60;;;1.80;;
26686;SDS011;14298;50.900;4.648;2023-10-13T13:16:17;2.35;;;1.75;;
26686;SDS011;14298;50.900;4.648;2023-10-13T13:18:45;2.90;;;1.50;;
26686;SDS011;14298;50.900;4.648;2023-10-13T13:21:13;2.62;;;1.75;;
26686;SDS011;14298;50.900;4.648;2023-10-13T13:23:43;5.45;;;1.52;;
26686;SDS011;14298;50.900;4.648;2023-10-13T13:26:11;2.58;;;1.80;;
26686;SDS011;14298;50.900;4.648;2023-10-13T13:28:44;3.87;;;2.47;;
26686;SDS011;14298;50.900;4.648;2023-10-13T13:31:14;10.82;;;1.95;;
26686;SDS011;14298;50.900;4.648;2023-10-13T13:33:42;3.13;;;2.20;;
26686;SDS011;14298;50.900;4.648;2023-10-13T13:36:10;4.73;;;1.47;;
26686;SDS011;14298;50.900;4.648;2023-10-13T13:38:43;18.35;;;1.98;;
26686;SDS011;14298;50.900;4.648;2023-10-13T13:41:16;11.88;;;2.27;;
26686;SDS011;14298;50.900;4.648;2023-10-13T13:43:48;1.65;;;1.45;;
26686;SDS011;14298;50.900;4.648;2023-10-13T13:46:23;1.52;;;1.42;;
26686;SDS011;14298;50.900;4.648;2023-10-13T13:48:59;4.40;;;2.47;;
26686;SDS011;14298;50.900;4.648;2023-10-13T13:51:28;3.77;;;2.23;;
26686;SDS011;14298;50.900;4.648;2023-10-13T13:53:59;3.33;;;2.00;;
26686;SDS011;14298;50.900;4.648;2023-10-13T13:56:27;3.77;;;1.70;;
26686;SDS011;14298;50.900;4.648;2023-10-13T13:58:57;5.10;;;2.17;;
26686;SDS011;14298;50.900;4.648;2023-10-13T14:01:27;3.85;;;2.00;;
26686;SDS011;14298;50.900;4.648;2023-10-13T14:03:56;6.57;;;2.30;;
26686;SDS011;14298;50.900;4.648;2023-10-13T14:06:25;11.33;;;1.90;;
26686;SDS011;14298;50.900;4.648;2023-10-13T14:08:57;5.83;;;1.92;;
26686;SDS011;14298;50.900;4.648;2023-10-13T14:11:27;5.90;;;1.72;;
26686;SDS011;14298;50.900;4.648;2023-10-13T14:14:28;4.43;;;2.00;;
26686;SDS011;14298;50.900;4.648;2023-10-13T14:16:58;2.27;;;2.00;;
26686;SDS011;14298;50.900;4.648;2023-10-13T14:19:35;4.77;;;1.93;;
26686;SDS011;14298;50.900;4.648;2023-10-13T14:22:05;4.43;;;2.47;;
26686;SDS011;14298;50.900;4.648;2023-10-13T14:24:37;2.53;;;1.67;;
26686;SDS011;14298;50.900;4.648;2023-10-13T14:27:13;2.17;;;1.37;;
26686;SDS011;14298;50.900;4.648;2023-10-13T14:29:43;9.87;;;1.57;;
26686;SDS011;14298;50.900;4.648;2023-10-13T14:32:11;1.95;;;1.75;;
26686;SDS011;14298;50.900;4.648;2023-10-13T14:34:43;3.87;;;2.30;;
26686;SDS011;14298;50.900;4.648;2023-10-13T14:37:11;2.20;;;1.50;;
26686;SDS011;14298;50.900;4.648;2023-10-13T14:39:44;3.40;;;2.03;;
26686;SDS011;14298;50.900;4.648;2023-10-13T14:42:12;3.75;;;1.55;;
26686;SDS011;14298;50.900;4.648;2023-10-13T14:44:42;5.72;;;2.02;;
26686;SDS011;14298;50.900;4.648;2023-10-13T14:47:09;3.37;;;2.03;;
26686;SDS011;14298;50.900;4.648;2023-10-13T14:49:38;3.27;;;2.45;;
26686;SDS011;14298;50.900;4.648;2023-10-13T14:52:08;3.10;;;1.87;;
26686;SDS011;14298;50.900;4.648;2023-10-13T14:54:36;2.95;;;1.35;;
26686;SDS011;14298;50.900;4.648;2023-10-13T14:57:04;2.17;;;1.97;;
26686;SDS011;14298;50.900;4.648;2023-10-13T14:59:32;2.83;;;1.70;;
26686;SDS011;14298;50.900;4.648;2023-10-13T15:02:04;1.97;;;1.77;;
26686;SDS011;14298;50.900;4.648;2023-10-13T15:04:32;2.80;;;2.10;;
26686;SDS011;14298;50.900;4.648;2023-10-13T15:07:00;4.23;;;2.00;;
26686;SDS011;14298;50.900;4.648;2023-10-13T15:09:30;3.55;;;2.20;;
26686;SDS011;14298;50.900;4.648;2023-10-13T15:11:58;2.20;;;2.00;;
26686;SDS011;14298;50.900;4.648;2023-10-13T15:14:26;2.93;;;1.83;;
26686;SDS011;14298;50.900;4.648;2023-10-13T15:16:54;2.93;;;2.20;;
26686;SDS011;14298;50.900;4.648;2023-10-13T15:19:23;5.17;;;2.43;;
26686;SDS011;14298;50.900;4.648;2023-10-13T15:21:51;1.93;;;1.77;;
26686;SDS011;14298;50.900;4.648;2023-10-13T15:24:20;3.77;;;1.97;;
26686;SDS011;14298;50.900;4.648;2023-10-13T15:26:52;3.13;;;2.33;;
26686;SDS011;14298;50.900;4.648;2023-10-13T15:29:22;3.03;;;1.57;;
26686;SDS011;14298;50.900;4.648;2023-10-13T15:31:53;3.60;;;2.30;;
26686;SDS011;14298;50.900;4.648;2023-10-13T15:34:23;1.50;;;1.40;;
26686;SDS011;14298;50.900;4.648;2023-10-13T15:36:53;1.13;;;1.03;;
26686;SDS011;14298;50.900;4.648;2023-10-13T15:39:22;4.00;;;1.87;;
26686;SDS011;14298;50.900;4.648;2023-10-13T15:41:58;4.63;;;2.20;;
26686;SDS011;14298;50.900;4.648;2023-10-13T15:44:26;2.37;;;2.13;;
26686;SDS011;14298;50.900;4.648;2023-10-13T15:46:56;3.20;;;1.90;;
26686;SDS011;14298;50.900;4.648;2023-10-13T15:49:25;6.37;;;1.97;;